createdAt,value
2023-05-14T00:00:21.920Z,8.13
2023-05-14T00:02:48.633Z,7.97
2023-05-14T00:05:15.382Z,7.70
2023-05-14T00:07:41.763Z,7.53
2023-05-14T00:10:08.421Z,8.00
2023-05-14T00:12:34.800Z,7.20
2023-05-14T00:15:01.336Z,7.93
2023-05-14T00:17:27.774Z,8.35
2023-05-14T00:19:54.178Z,8.38
2023-05-14T00:22:20.563Z,8.13
2023-05-14T00:24:46.943Z,8.32
2023-05-14T00:27:13.366Z,8.32
2023-05-14T00:29:42.633Z,7.68
2023-05-14T00:32:09.040Z,7.38
2023-05-14T00:34:36.081Z,7.50
2023-05-14T00:37:02.456Z,8.32
2023-05-14T00:39:28.864Z,8.38
2023-05-14T00:41:55.264Z,8.60
2023-05-14T00:44:21.641Z,8.18
2023-05-14T00:46:48.383Z,8.63
2023-05-14T00:49:15.645Z,8.77
2023-05-14T00:51:42.891Z,9.02
2023-05-14T00:54:09.452Z,8.90
2023-05-14T00:56:36.077Z,8.73
2023-05-14T00:59:02.454Z,9.40
2023-05-14T01:01:28.964Z,9.50
2023-05-14T01:03:57.901Z,8.38
2023-05-14T01:06:46.147Z,8.25
2023-05-14T01:09:23.035Z,8.30
2023-05-14T01:11:59.797Z,9.13
2023-05-14T01:14:29.125Z,7.90
2023-05-14T01:16:58.719Z,8.13
2023-05-14T01:19:34.237Z,8.30
2023-05-14T01:22:00.611Z,8.93
2023-05-14T01:24:27.524Z,8.15
2023-05-14T01:27:00.414Z,8.35
2023-05-14T01:29:29.557Z,8.10
2023-05-14T01:31:57.866Z,8.05
2023-05-14T01:34:26.270Z,8.00
2023-05-14T01:36:53.539Z,8.07
2023-05-14T01:39:20.579Z,8.13
2023-05-14T01:41:48.502Z,8.45
2023-05-14T01:44:14.943Z,8.32
2023-05-14T01:46:41.367Z,7.95
2023-05-14T01:49:08.001Z,7.88
2023-05-14T01:51:34.423Z,7.85
2023-05-14T01:54:00.794Z,7.78
2023-05-14T01:56:27.211Z,8.10
2023-05-14T01:58:53.818Z,7.68
2023-05-14T02:01:20.367Z,7.78
2023-05-14T02:03:46.817Z,7.80
2023-05-14T02:06:13.302Z,7.35
2023-05-14T02:08:39.951Z,7.57
2023-05-14T02:11:06.308Z,7.22
2023-05-14T02:13:32.685Z,6.95
2023-05-14T02:15:59.116Z,7.00
2023-05-14T02:18:25.685Z,6.90
2023-05-14T02:20:52.108Z,6.88
2023-05-14T02:23:18.725Z,7.18
2023-05-14T02:25:45.910Z,6.65
2023-05-14T02:28:12.296Z,7.05
2023-05-14T02:30:38.710Z,6.88
2023-05-14T02:33:05.175Z,6.88
2023-05-14T02:35:31.601Z,6.63
2023-05-14T02:37:59.455Z,7.25
2023-05-14T02:40:26.091Z,7.00
2023-05-14T02:42:52.637Z,7.18
2023-05-14T02:45:19.005Z,6.90
2023-05-14T02:47:46.123Z,7.07
2023-05-14T02:50:12.540Z,6.40
2023-05-14T02:52:38.932Z,6.88
2023-05-14T02:55:06.193Z,6.35
2023-05-14T02:57:32.585Z,6.35
2023-05-14T02:59:59.024Z,6.57
2023-05-14T03:02:25.997Z,6.78
2023-05-14T03:04:52.639Z,6.72
2023-05-14T03:07:19.009Z,6.18
2023-05-14T03:09:45.471Z,6.72
2023-05-14T03:12:12.819Z,7.20
2023-05-14T03:14:39.202Z,7.00
2023-05-14T03:17:05.912Z,6.57
2023-05-14T03:19:32.343Z,6.22
2023-05-14T03:21:58.715Z,7.07
2023-05-14T03:24:25.405Z,6.82
2023-05-14T03:26:51.778Z,6.28
2023-05-14T03:29:18.234Z,6.78
2023-05-14T03:31:45.145Z,6.53
2023-05-14T03:34:11.587Z,6.35
2023-05-14T03:36:39.657Z,6.40
2023-05-14T03:39:09.466Z,6.90
2023-05-14T03:41:36.311Z,6.85
2023-05-14T03:44:02.704Z,6.05
2023-05-14T03:46:29.077Z,6.45
2023-05-14T03:48:55.502Z,6.57
2023-05-14T03:51:21.908Z,6.57
2023-05-14T03:53:48.266Z,6.20
2023-05-14T03:56:14.624Z,6.15
2023-05-14T03:58:41.002Z,6.20
2023-05-14T04:01:07.390Z,6.32
2023-05-14T04:03:33.888Z,6.30
2023-05-14T04:06:00.411Z,6.07
2023-05-14T04:08:26.775Z,5.88
2023-05-14T04:10:53.132Z,6.13
2023-05-14T04:13:19.513Z,6.10
2023-05-14T04:15:45.885Z,5.90
2023-05-14T04:18:12.351Z,5.55
2023-05-14T04:20:38.775Z,5.68
2023-05-14T04:23:05.145Z,5.70
2023-05-14T04:25:31.524Z,6.18
2023-05-14T04:27:58.625Z,6.22
2023-05-14T04:30:25.224Z,5.50
2023-05-14T04:32:51.764Z,5.55
2023-05-14T04:35:18.256Z,5.90
2023-05-14T04:37:44.691Z,5.53
2023-05-14T04:40:11.303Z,5.75
2023-05-14T04:42:38.683Z,6.28
2023-05-14T04:45:06.708Z,5.43
2023-05-14T04:47:33.134Z,6.00
2023-05-14T04:49:59.584Z,5.88
2023-05-14T04:52:26.151Z,5.80
2023-05-14T04:54:52.625Z,5.05
2023-05-14T04:57:19.015Z,5.80
2023-05-14T04:59:45.501Z,6.10
2023-05-14T05:02:11.875Z,6.05
2023-05-14T05:04:38.799Z,5.88
2023-05-14T05:07:05.745Z,5.80
2023-05-14T05:09:32.155Z,5.55
2023-05-14T05:11:58.703Z,5.40
2023-05-14T05:14:25.055Z,5.35
2023-05-14T05:16:51.478Z,5.43
2023-05-14T05:19:17.966Z,5.60
2023-05-14T05:21:44.590Z,5.35
2023-05-14T05:24:11.064Z,5.50
2023-05-14T05:26:37.515Z,5.28
2023-05-14T05:29:04.519Z,5.28
2023-05-14T05:31:31.833Z,5.35
2023-05-14T05:34:01.360Z,5.45
2023-05-14T05:36:28.642Z,5.22
2023-05-14T05:38:55.413Z,5.60
2023-05-14T05:41:22.455Z,4.88
2023-05-14T05:43:48.813Z,5.70
2023-05-14T05:46:15.220Z,5.32
2023-05-14T05:48:41.592Z,5.65
2023-05-14T05:51:08.121Z,5.40
2023-05-14T05:53:34.485Z,5.72
2023-05-14T05:56:00.945Z,5.55
2023-05-14T05:58:27.429Z,5.97
2023-05-14T06:00:53.823Z,5.85
2023-05-14T06:03:20.383Z,5.50
2023-05-14T06:05:47.036Z,5.43
2023-05-14T06:08:13.908Z,5.70
2023-05-14T06:10:40.289Z,5.55
2023-05-14T06:13:06.963Z,5.82
2023-05-14T06:15:33.351Z,5.93
2023-05-14T06:17:59.765Z,5.50
2023-05-14T06:20:26.505Z,5.63
2023-05-14T06:22:53.078Z,5.15
2023-05-14T06:25:19.609Z,5.43
2023-05-14T06:27:45.999Z,4.82
2023-05-14T06:30:12.907Z,4.80
2023-05-14T06:32:39.363Z,5.40
2023-05-14T06:35:06.278Z,5.25
2023-05-14T06:37:32.633Z,4.60
2023-05-14T06:40:00.992Z,4.95
2023-05-14T06:42:27.435Z,4.78
2023-05-14T06:44:54.518Z,5.25
2023-05-14T06:47:20.916Z,5.00
2023-05-14T06:49:47.287Z,4.85
2023-05-14T06:52:13.660Z,4.70
2023-05-14T06:54:40.022Z,4.82
2023-05-14T06:57:06.402Z,5.15
2023-05-14T06:59:33.225Z,4.70
2023-05-14T07:01:59.768Z,4.95
2023-05-14T07:04:26.245Z,4.68
2023-05-14T07:06:52.689Z,4.40
2023-05-14T07:09:19.045Z,4.97
2023-05-14T07:11:45.589Z,4.40
2023-05-14T07:14:11.983Z,5.22
2023-05-14T07:16:38.402Z,4.78
2023-05-14T07:19:04.858Z,4.63
2023-05-14T07:21:32.410Z,4.47
2023-05-14T07:23:58.809Z,4.53
2023-05-14T07:26:25.224Z,4.50
2023-05-14T07:28:51.608Z,4.18
2023-05-14T07:31:18.048Z,4.15
2023-05-14T07:33:44.642Z,4.70
2023-05-14T07:36:11.042Z,4.40
2023-05-14T07:38:37.417Z,4.60
2023-05-14T07:41:04.076Z,4.32
2023-05-14T07:43:31.044Z,4.63
2023-05-14T07:45:57.413Z,4.47
2023-05-14T07:48:23.854Z,4.15
2023-05-14T07:50:51.522Z,3.95
2023-05-14T07:53:17.897Z,4.45
2023-05-14T07:55:45.313Z,3.92
2023-05-14T07:58:11.683Z,4.63
2023-05-14T08:00:38.035Z,4.22
2023-05-14T08:03:05.160Z,3.72
2023-05-14T08:05:32.916Z,4.20
2023-05-14T08:07:59.319Z,3.95
2023-05-14T08:10:26.026Z,4.10
2023-05-14T08:12:52.715Z,4.15
2023-05-14T08:15:19.128Z,3.70
2023-05-14T08:17:45.627Z,4.05
2023-05-14T08:20:12.217Z,3.97
2023-05-14T08:22:38.623Z,4.25
2023-05-14T08:25:06.410Z,4.15
2023-05-14T08:27:32.816Z,3.85
2023-05-14T08:29:59.181Z,4.00
2023-05-14T08:32:25.630Z,4.07
2023-05-14T08:34:52.335Z,4.90
2023-05-14T08:37:18.838Z,6.00
2023-05-14T08:39:45.189Z,5.28
2023-05-14T08:42:12.850Z,7.07
2023-05-14T08:44:50.008Z,4.43
2023-05-14T08:47:21.169Z,6.90
2023-05-14T08:49:54.435Z,4.07
2023-05-14T08:52:22.645Z,6.95
2023-05-14T08:54:50.785Z,5.93
2023-05-14T08:57:18.704Z,6.93
2023-05-14T08:59:45.169Z,4.68
2023-05-14T09:02:15.148Z,3.70
2023-05-14T09:04:42.471Z,4.07
2023-05-14T09:07:09.075Z,3.83
2023-05-14T09:09:37.199Z,3.60
2023-05-14T09:12:03.804Z,3.92
2023-05-14T09:14:30.182Z,3.55
2023-05-14T09:16:56.995Z,3.80
2023-05-14T09:19:23.929Z,3.50
2023-05-14T09:21:50.522Z,3.50
2023-05-14T09:24:25.022Z,3.28
2023-05-14T09:26:53.383Z,4.30
2023-05-14T09:29:19.915Z,3.83
2023-05-14T09:31:46.552Z,3.60
2023-05-14T09:34:35.116Z,4.03
2023-05-14T09:37:03.883Z,3.83
2023-05-14T09:39:31.117Z,3.90
2023-05-14T09:41:57.777Z,3.25
2023-05-14T09:44:25.530Z,3.40
2023-05-14T09:46:53.378Z,3.47
2023-05-14T09:49:20.400Z,3.50
2023-05-14T09:51:48.179Z,3.72
2023-05-14T09:54:14.653Z,3.50
2023-05-14T09:56:42.096Z,3.58
2023-05-14T09:59:08.476Z,3.42
2023-05-14T10:01:35.966Z,4.00
2023-05-14T10:04:06.275Z,3.53
2023-05-14T10:06:37.052Z,3.88
2023-05-14T10:09:05.805Z,3.55
2023-05-14T10:11:35.514Z,3.70
2023-05-14T10:14:17.948Z,3.85
2023-05-14T10:16:50.471Z,3.70
2023-05-14T10:19:19.427Z,3.80
2023-05-14T10:21:49.854Z,3.45
2023-05-14T10:24:16.922Z,3.70
2023-05-14T10:26:43.380Z,4.00
2023-05-14T10:29:10.437Z,3.55
2023-05-14T10:31:54.182Z,3.90
2023-05-14T10:34:46.104Z,3.80
2023-05-14T10:37:18.074Z,3.50
2023-05-14T10:39:50.647Z,4.53
2023-05-14T10:42:28.890Z,9.35
2023-05-14T10:44:58.746Z,20.70
2023-05-14T10:47:29.230Z,10.63
2023-05-14T10:49:57.914Z,4.35
2023-05-14T10:52:24.987Z,5.63
2023-05-14T10:54:55.842Z,3.67
2023-05-14T10:57:24.086Z,4.43
2023-05-14T10:59:56.098Z,5.40
2023-05-14T11:02:31.126Z,4.07
2023-05-14T11:05:00.244Z,4.20
2023-05-14T11:07:35.435Z,4.00
2023-05-14T11:10:12.373Z,3.72
2023-05-14T11:12:41.338Z,3.88
2023-05-14T11:15:19.420Z,3.88
2023-05-14T11:17:47.354Z,3.80
2023-05-14T11:20:14.682Z,3.95
2023-05-14T11:22:42.528Z,3.75
2023-05-14T11:25:09.773Z,4.03
2023-05-14T11:27:38.673Z,3.80
2023-05-14T11:30:06.569Z,4.22
2023-05-14T11:32:33.400Z,3.90
2023-05-14T11:34:59.756Z,4.00
2023-05-14T11:37:26.160Z,3.97
2023-05-14T11:39:54.505Z,3.80
2023-05-14T11:42:22.396Z,3.90
2023-05-14T11:44:51.610Z,4.38
2023-05-14T11:47:19.897Z,3.97
2023-05-14T11:49:46.797Z,4.53
2023-05-14T11:52:14.803Z,4.43
2023-05-14T11:54:42.944Z,4.45
2023-05-14T11:57:17.729Z,3.78
2023-05-14T11:59:44.413Z,5.53
2023-05-14T12:02:16.070Z,4.22
2023-05-14T12:04:43.578Z,4.70
2023-05-14T12:07:15.619Z,4.47
2023-05-14T12:09:49.217Z,4.43
2023-05-14T12:12:18.932Z,7.82
2023-05-14T12:14:45.509Z,5.70
2023-05-14T12:17:20.089Z,5.15
2023-05-14T12:19:54.220Z,5.10
2023-05-14T12:22:22.388Z,5.75
2023-05-14T12:24:59.301Z,5.57
2023-05-14T12:27:27.824Z,4.78
2023-05-14T12:30:19.241Z,4.28
2023-05-14T12:32:47.127Z,4.35
2023-05-14T12:35:13.573Z,4.10
2023-05-14T12:37:40.074Z,5.15
2023-05-14T12:40:09.365Z,4.40
2023-05-14T12:42:36.464Z,4.85
2023-05-14T12:45:05.609Z,4.07
2023-05-14T12:47:32.349Z,5.38
2023-05-14T12:49:58.913Z,4.65
2023-05-14T12:52:36.889Z,4.07
2023-05-14T12:55:05.209Z,5.45
2023-05-14T12:57:31.673Z,3.88
2023-05-14T12:59:58.128Z,4.63
2023-05-14T13:02:24.469Z,4.18
2023-05-14T13:04:50.846Z,3.80
2023-05-14T13:07:17.251Z,3.90
2023-05-14T13:09:43.609Z,4.18
2023-05-14T13:12:10.051Z,4.47
2023-05-14T13:14:36.488Z,3.95
2023-05-14T13:17:04.202Z,5.38
2023-05-14T13:19:30.734Z,4.28
2023-05-14T13:21:57.094Z,4.15
2023-05-14T13:24:24.963Z,4.20
2023-05-14T13:26:51.357Z,4.40
2023-05-14T13:29:17.722Z,4.00
2023-05-14T13:31:44.257Z,4.57
2023-05-14T13:34:10.702Z,3.33
2023-05-14T13:36:39.606Z,3.40
2023-05-14T13:39:06.852Z,4.10
2023-05-14T13:41:37.798Z,3.67
2023-05-14T13:44:04.993Z,3.25
2023-05-14T13:46:31.472Z,3.45
2023-05-14T13:48:57.867Z,3.65
2023-05-14T13:51:24.256Z,3.97
2023-05-14T13:53:50.617Z,3.58
2023-05-14T13:56:16.992Z,3.38
2023-05-14T13:58:43.357Z,5.13
2023-05-14T14:01:09.818Z,4.40
2023-05-14T14:03:36.215Z,12.68
2023-05-14T14:06:02.657Z,14.40
2023-05-14T14:08:29.056Z,10.40
2023-05-14T14:10:55.709Z,5.05
2023-05-14T14:13:22.809Z,6.18
2023-05-14T14:15:49.961Z,37.10
2023-05-14T14:18:16.444Z,6.43
2023-05-14T14:20:42.815Z,5.45
2023-05-14T14:23:09.175Z,23.42
2023-05-14T14:25:35.559Z,6.32
2023-05-14T14:28:06.042Z,3.53
2023-05-14T14:30:32.484Z,4.72
2023-05-14T14:33:01.153Z,3.92
2023-05-14T14:35:27.698Z,3.80
2023-05-14T14:37:55.604Z,4.57
2023-05-14T14:40:23.650Z,4.07
2023-05-14T14:42:50.190Z,4.68
2023-05-14T14:45:16.544Z,4.32
2023-05-14T14:47:45.997Z,4.13
2023-05-14T14:50:13.033Z,4.35
2023-05-14T14:52:40.768Z,4.38
2023-05-14T14:55:07.398Z,3.50
2023-05-14T14:57:33.767Z,3.97
2023-05-14T15:00:02.103Z,3.80
2023-05-14T15:02:29.100Z,4.03
2023-05-14T15:04:55.759Z,4.05
2023-05-14T15:07:22.662Z,4.78
2023-05-14T15:09:49.029Z,3.95
2023-05-14T15:12:17.032Z,3.90
2023-05-14T15:14:43.490Z,4.30
2023-05-14T15:17:10.421Z,3.60
2023-05-14T15:19:37.011Z,3.28
2023-05-14T15:22:03.918Z,3.67
2023-05-14T15:24:30.392Z,4.10
2023-05-14T15:26:56.763Z,3.75
2023-05-14T15:29:23.152Z,4.05
2023-05-14T15:31:49.571Z,3.45
2023-05-14T15:34:16.243Z,3.25
2023-05-14T15:36:42.616Z,3.78
2023-05-14T15:39:10.374Z,4.18
2023-05-14T15:41:36.851Z,3.92
2023-05-14T15:44:03.263Z,3.83
2023-05-14T15:46:30.482Z,3.50
2023-05-14T15:48:57.890Z,3.70
2023-05-14T15:51:24.269Z,3.83
2023-05-14T15:53:53.291Z,3.80
2023-05-14T15:56:20.737Z,4.03
2023-05-14T15:58:48.192Z,3.40
2023-05-14T16:01:14.613Z,3.42
2023-05-14T16:03:41.160Z,5.03
2023-05-14T16:06:07.627Z,7.53
2023-05-14T16:08:33.982Z,5.63
2023-05-14T16:11:00.341Z,9.52
2023-05-14T16:13:26.795Z,5.65
2023-05-14T16:15:53.277Z,5.38
2023-05-14T16:18:19.860Z,4.07
2023-05-14T16:20:46.232Z,4.45
2023-05-14T16:23:12.596Z,4.93
2023-05-14T16:25:38.951Z,8.52
2023-05-14T16:28:05.409Z,3.97
2023-05-14T16:30:31.956Z,11.15
2023-05-14T16:32:58.372Z,4.40
2023-05-14T16:35:24.778Z,7.63
2023-05-14T16:37:51.186Z,5.97
2023-05-14T16:40:19.571Z,4.75
2023-05-14T16:42:48.476Z,4.05
2023-05-14T16:45:15.704Z,4.57
2023-05-14T16:47:42.078Z,4.47
2023-05-14T16:50:08.817Z,4.07
2023-05-14T16:52:35.242Z,4.07
2023-05-14T16:55:01.613Z,4.15
2023-05-14T16:57:28.128Z,4.57
2023-05-14T16:59:54.543Z,4.05
2023-05-14T17:02:20.905Z,4.60
2023-05-14T17:04:47.318Z,6.13
2023-05-14T17:07:13.764Z,5.75
2023-05-14T17:09:40.251Z,4.50
2023-05-14T17:12:07.014Z,3.67
2023-05-14T17:14:33.368Z,4.03
2023-05-14T17:16:59.737Z,3.67
2023-05-14T17:19:26.116Z,4.20
2023-05-14T17:21:52.491Z,4.65
2023-05-14T17:24:18.874Z,4.30
2023-05-14T17:26:45.413Z,4.07
2023-05-14T17:29:11.818Z,4.32
2023-05-14T17:31:38.253Z,4.45
2023-05-14T17:34:04.646Z,4.10
2023-05-14T17:36:32.252Z,4.07
2023-05-14T17:38:58.633Z,4.00
2023-05-14T17:41:25.017Z,4.40
2023-05-14T17:43:52.485Z,3.83
2023-05-14T17:46:19.060Z,4.47
2023-05-14T17:48:45.547Z,4.75
2023-05-14T17:51:11.916Z,4.40
2023-05-14T17:53:38.286Z,4.25
2023-05-14T17:56:05.168Z,3.85
2023-05-14T17:58:31.528Z,4.10
2023-05-14T18:00:57.914Z,4.40
2023-05-14T18:03:24.435Z,4.20
2023-05-14T18:05:51.125Z,4.07
2023-05-14T18:08:17.548Z,4.25
2023-05-14T18:10:43.977Z,4.07
2023-05-14T18:13:10.412Z,4.00
2023-05-14T18:15:36.970Z,4.35
2023-05-14T18:18:03.474Z,4.35
2023-05-14T18:20:29.938Z,4.53
2023-05-14T18:22:56.320Z,5.07
2023-05-14T18:25:22.979Z,4.25
2023-05-14T18:27:49.678Z,4.50
2023-05-14T18:30:16.158Z,4.40
2023-05-14T18:32:44.489Z,4.78
2023-05-14T18:35:12.407Z,4.50
2023-05-14T18:37:39.142Z,4.65
2023-05-14T18:40:06.982Z,5.70
2023-05-14T18:42:33.915Z,4.68
2023-05-14T18:45:00.445Z,4.18
2023-05-14T18:47:26.960Z,4.38
2023-05-14T18:49:55.738Z,4.35
2023-05-14T18:52:22.822Z,4.70
2023-05-14T18:54:50.373Z,4.03
2023-05-14T18:57:17.027Z,4.18
2023-05-14T18:59:43.419Z,4.35
2023-05-14T19:02:10.108Z,5.20
2023-05-14T19:04:50.645Z,4.68
2023-05-14T19:07:18.588Z,5.00
2023-05-14T19:09:44.976Z,4.90
2023-05-14T19:12:11.352Z,5.65
2023-05-14T19:14:37.782Z,4.40
2023-05-14T19:17:04.762Z,4.70
2023-05-14T19:19:31.266Z,4.82
2023-05-14T19:21:57.626Z,5.20
2023-05-14T19:24:24.039Z,5.72
2023-05-14T19:26:50.474Z,5.50
2023-05-14T19:29:16.833Z,5.15
2023-05-14T19:31:43.268Z,4.80
2023-05-14T19:34:10.061Z,5.22
2023-05-14T19:36:36.437Z,4.88
2023-05-14T19:39:03.087Z,5.47
2023-05-14T19:41:29.493Z,5.55
2023-05-14T19:43:55.882Z,5.75
2023-05-14T19:46:22.306Z,5.80
2023-05-14T19:48:48.716Z,5.78
2023-05-14T19:51:15.159Z,5.90
2023-05-14T19:53:41.558Z,6.75
2023-05-14T19:56:08.017Z,6.28
2023-05-14T19:58:34.384Z,6.97
2023-05-14T20:01:00.922Z,6.82
2023-05-14T20:03:27.463Z,6.72
2023-05-14T20:05:55.180Z,6.70
2023-05-14T20:08:21.674Z,7.10
2023-05-14T20:10:48.373Z,6.60
2023-05-14T20:13:14.999Z,7.13
2023-05-14T20:15:41.445Z,7.35
2023-05-14T20:18:08.026Z,7.10
2023-05-14T20:20:34.513Z,7.18
2023-05-14T20:23:00.894Z,7.38
2023-05-14T20:25:28.485Z,6.85
2023-05-14T20:27:55.276Z,7.53
2023-05-14T20:30:21.685Z,7.47
2023-05-14T20:32:48.141Z,7.47
2023-05-14T20:35:14.555Z,7.75
2023-05-14T20:37:41.274Z,7.85
2023-05-14T20:40:10.525Z,7.57
2023-05-14T20:42:37.047Z,7.70
2023-05-14T20:45:03.829Z,8.68
2023-05-14T20:47:31.950Z,8.40
2023-05-14T20:49:58.631Z,8.43
2023-05-14T20:52:25.031Z,8.30
2023-05-14T20:54:51.441Z,8.90
2023-05-14T20:57:18.922Z,9.57
2023-05-14T20:59:45.959Z,9.32
2023-05-14T21:02:12.712Z,8.77
2023-05-14T21:04:39.246Z,9.98
2023-05-14T21:07:06.197Z,9.60
2023-05-14T21:09:32.869Z,9.57
2023-05-14T21:11:59.288Z,9.80
2023-05-14T21:14:25.776Z,9.70
2023-05-14T21:16:52.310Z,9.45
2023-05-14T21:19:18.837Z,9.55
2023-05-14T21:21:45.615Z,9.65
2023-05-14T21:24:12.004Z,9.75
2023-05-14T21:26:40.270Z,9.27
2023-05-14T21:29:06.875Z,9.90
2023-05-14T21:31:33.318Z,9.02
2023-05-14T21:33:59.715Z,9.90
2023-05-14T21:36:26.085Z,10.15
2023-05-14T21:38:55.534Z,9.88
2023-05-14T21:41:22.058Z,10.20
2023-05-14T21:43:48.505Z,10.13
2023-05-14T21:46:14.962Z,9.90
2023-05-14T21:48:43.385Z,10.02
2023-05-14T21:51:10.110Z,9.85
2023-05-14T21:53:36.502Z,10.70
2023-05-14T21:56:02.916Z,10.05
2023-05-14T21:58:29.273Z,10.32
2023-05-14T22:00:55.664Z,9.77
2023-05-14T22:03:23.158Z,9.60
2023-05-14T22:05:49.627Z,10.07
2023-05-14T22:08:17.568Z,10.32
2023-05-14T22:10:44.410Z,10.13
2023-05-14T22:13:10.997Z,10.55
2023-05-14T22:15:37.873Z,10.00
2023-05-14T22:18:04.460Z,10.75
2023-05-14T22:20:30.897Z,9.77
2023-05-14T22:22:57.287Z,10.52
2023-05-14T22:25:23.955Z,10.68
2023-05-14T22:27:50.492Z,10.82
2023-05-14T22:30:16.983Z,9.98
2023-05-14T22:32:43.371Z,10.38
2023-05-14T22:35:09.830Z,10.52
2023-05-14T22:37:36.180Z,10.43
2023-05-14T22:40:05.070Z,10.30
2023-05-14T22:42:31.482Z,11.15
2023-05-14T22:44:57.869Z,10.38
2023-05-14T22:47:25.196Z,10.35
2023-05-14T22:49:52.400Z,10.63
2023-05-14T22:52:18.901Z,11.15
2023-05-14T22:54:46.587Z,11.10
2023-05-14T22:57:12.993Z,10.38
2023-05-14T22:59:39.505Z,10.80
2023-05-14T23:02:06.639Z,10.48
2023-05-14T23:04:33.234Z,10.32
2023-05-14T23:06:59.655Z,10.40
2023-05-14T23:09:26.017Z,10.40
2023-05-14T23:11:52.406Z,10.02
2023-05-14T23:14:18.803Z,9.93
2023-05-14T23:16:45.226Z,9.10
2023-05-14T23:19:11.820Z,10.20
2023-05-14T23:21:38.340Z,10.30
2023-05-14T23:24:04.860Z,9.95
2023-05-14T23:26:31.429Z,10.23
2023-05-14T23:28:57.781Z,9.85
2023-05-14T23:31:24.245Z,10.52
2023-05-14T23:33:50.705Z,10.73
2023-05-14T23:36:17.101Z,9.85
2023-05-14T23:38:43.594Z,10.18
2023-05-14T23:41:10.086Z,10.27
2023-05-14T23:43:36.637Z,10.73
2023-05-14T23:46:03.079Z,10.77
2023-05-14T23:48:29.844Z,10.80
2023-05-14T23:50:56.207Z,10.40
2023-05-14T23:53:23.273Z,10.05
2023-05-14T23:55:49.749Z,10.40
2023-05-14T23:58:16.183Z,10.32
